sensor_id;sensor_type;location;lat;lon;timestamp;pressure;altitude;pressure_sealevel;temperature;humidity
76653;BME280;65563;45.970;12.680;2023-03-19T00:00:52;101621.72;;;7.16;66.40
76653;BME280;65563;45.970;12.680;2023-03-19T00:01:52;101617.25;;;7.17;66.42
76653;BME280;65563;45.970;12.680;2023-03-19T00:02:52;101621.47;;;7.10;66.57
76653;BME280;65563;45.970;12.680;2023-03-19T00:03:53;101621.03;;;7.05;66.84
76653;BME280;65563;45.970;12.680;2023-03-19T00:04:53;101617.28;;;7.07;66.55
76653;BME280;65563;45.970;12.680;2023-03-19T00:05:53;101619.38;;;7.04;66.80
76653;BME280;65563;45.970;12.680;2023-03-19T00:06:53;101606.75;;;6.98;66.89
76653;BME280;65563;45.970;12.680;2023-03-19T00:07:53;101612.31;;;6.94;67.32
76653;BME280;65563;45.970;12.680;2023-03-19T00:08:53;101608.03;;;6.93;67.09
76653;BME280;65563;45.970;12.680;2023-03-19T00:09:54;101613.47;;;6.92;67.04
76653;BME280;65563;45.970;12.680;2023-03-19T00:10:54;101614.56;;;6.89;66.76
76653;BME280;65563;45.970;12.680;2023-03-19T00:11:54;101612.91;;;6.88;66.81
76653;BME280;65563;45.970;12.680;2023-03-19T00:12:54;101613.31;;;6.93;66.71
76653;BME280;65563;45.970;12.680;2023-03-19T00:13:54;101603.19;;;6.89;66.95
76653;BME280;65563;45.970;12.680;2023-03-19T00:14:54;101607.91;;;6.85;67.34
76653;BME280;65563;45.970;12.680;2023-03-19T00:15:55;101608.78;;;6.66;66.68
76653;BME280;65563;45.970;12.680;2023-03-19T00:16:55;101609.59;;;6.77;66.14
76653;BME280;65563;45.970;12.680;2023-03-19T00:17:55;101618.22;;;6.79;66.20
76653;BME280;65563;45.970;12.680;2023-03-19T00:18:55;101621.13;;;6.66;66.19
76653;BME280;65563;45.970;12.680;2023-03-19T00:19:55;101622.56;;;6.60;66.62
76653;BME280;65563;45.970;12.680;2023-03-19T00:20:55;101613.25;;;6.47;66.90
76653;BME280;65563;45.970;12.680;2023-03-19T00:21:55;101622.00;;;6.47;66.76
76653;BME280;65563;45.970;12.680;2023-03-19T00:22:56;101621.19;;;6.47;67.21
76653;BME280;65563;45.970;12.680;2023-03-19T00:23:56;101616.59;;;6.39;67.06
76653;BME280;65563;45.970;12.680;2023-03-19T00:24:56;101613.81;;;6.40;67.18
76653;BME280;65563;45.970;12.680;2023-03-19T00:25:56;101606.72;;;6.31;67.38
76653;BME280;65563;45.970;12.680;2023-03-19T00:26:57;101604.25;;;6.39;67.51
76653;BME280;65563;45.970;12.680;2023-03-19T00:27:57;101604.22;;;6.49;67.18
76653;BME280;65563;45.970;12.680;2023-03-19T00:28:57;101609.91;;;6.44;67.15
76653;BME280;65563;45.970;12.680;2023-03-19T00:29:58;101617.00;;;6.34;67.43
76653;BME280;65563;45.970;12.680;2023-03-19T00:31:05;101623.53;;;6.30;67.92
76653;BME280;65563;45.970;12.680;2023-03-19T00:32:05;101617.97;;;6.24;67.98
76653;BME280;65563;45.970;12.680;2023-03-19T00:33:05;101623.97;;;6.26;68.09
76653;BME280;65563;45.970;12.680;2023-03-19T00:34:06;101631.44;;;6.30;67.98
76653;BME280;65563;45.970;12.680;2023-03-19T00:35:06;101629.38;;;6.43;67.69
76653;BME280;65563;45.970;12.680;2023-03-19T00:36:07;101627.69;;;6.23;67.72
76653;BME280;65563;45.970;12.680;2023-03-19T00:37:08;101619.94;;;6.21;68.14
76653;BME280;65563;45.970;12.680;2023-03-19T00:38:08;101619.25;;;6.29;68.14
76653;BME280;65563;45.970;12.680;2023-03-19T00:39:08;101611.06;;;6.32;67.89
76653;BME280;65563;45.970;12.680;2023-03-19T00:40:08;101611.44;;;6.47;67.25
76653;BME280;65563;45.970;12.680;2023-03-19T00:41:09;101611.03;;;6.52;67.17
76653;BME280;65563;45.970;12.680;2023-03-19T00:42:09;101617.97;;;6.53;67.27
76653;BME280;65563;45.970;12.680;2023-03-19T00:43:09;101617.13;;;6.62;67.17
76653;BME280;65563;45.970;12.680;2023-03-19T00:44:09;101617.94;;;6.62;66.90
76653;BME280;65563;45.970;12.680;2023-03-19T00:45:10;101613.38;;;6.55;66.74
76653;BME280;65563;45.970;12.680;2023-03-19T00:46:10;101609.91;;;6.44;67.31
76653;BME280;65563;45.970;12.680;2023-03-19T00:47:10;101606.34;;;6.36;67.90
76653;BME280;65563;45.970;12.680;2023-03-19T00:48:10;101609.53;;;6.39;67.63
76653;BME280;65563;45.970;12.680;2023-03-19T00:49:11;101606.88;;;6.39;67.61
76653;BME280;65563;45.970;12.680;2023-03-19T00:50:11;101615.34;;;6.43;67.63
76653;BME280;65563;45.970;12.680;2023-03-19T00:51:11;101618.00;;;6.33;67.94
76653;BME280;65563;45.970;12.680;2023-03-19T00:52:11;101624.66;;;6.37;67.86
76653;BME280;65563;45.970;12.680;2023-03-19T00:53:11;101621.03;;;6.38;68.10
76653;BME280;65563;45.970;12.680;2023-03-19T00:54:11;101618.81;;;6.24;68.25
76653;BME280;65563;45.970;12.680;2023-03-19T00:55:12;101616.06;;;6.26;68.36
76653;BME280;65563;45.970;12.680;2023-03-19T00:56:13;101622.16;;;6.26;68.45
76653;BME280;65563;45.970;12.680;2023-03-19T00:57:13;101622.72;;;6.30;68.41
76653;BME280;65563;45.970;12.680;2023-03-19T00:58:13;101624.38;;;6.40;68.11
76653;BME280;65563;45.970;12.680;2023-03-19T00:59:14;101623.13;;;6.54;67.32
76653;BME280;65563;45.970;12.680;2023-03-19T01:00:14;101621.56;;;6.52;67.47
76653;BME280;65563;45.970;12.680;2023-03-19T01:01:16;101624.91;;;6.34;68.36
76653;BME280;65563;45.970;12.680;2023-03-19T01:02:16;101632.16;;;6.32;68.15
76653;BME280;65563;45.970;12.680;2023-03-19T01:03:16;101627.84;;;6.31;68.21
76653;BME280;65563;45.970;12.680;2023-03-19T01:04:16;101624.25;;;6.32;68.25
76653;BME280;65563;45.970;12.680;2023-03-19T01:05:16;101628.53;;;6.33;68.26
76653;BME280;65563;45.970;12.680;2023-03-19T01:06:17;101621.31;;;6.26;68.53
76653;BME280;65563;45.970;12.680;2023-03-19T01:07:17;101622.28;;;6.34;68.39
76653;BME280;65563;45.970;12.680;2023-03-19T01:08:17;101622.28;;;6.44;68.04
76653;BME280;65563;45.970;12.680;2023-03-19T01:09:17;101630.19;;;6.44;68.09
76653;BME280;65563;45.970;12.680;2023-03-19T01:10:18;101627.41;;;6.45;67.68
76653;BME280;65563;45.970;12.680;2023-03-19T01:11:19;101632.28;;;6.40;67.88
76653;BME280;65563;45.970;12.680;2023-03-19T01:12:19;101619.09;;;6.50;67.34
76653;BME280;65563;45.970;12.680;2023-03-19T01:13:19;101614.63;;;6.60;66.93
76653;BME280;65563;45.970;12.680;2023-03-19T01:14:19;101610.31;;;6.59;66.72
76653;BME280;65563;45.970;12.680;2023-03-19T01:15:19;101614.38;;;6.44;67.23
76653;BME280;65563;45.970;12.680;2023-03-19T01:16:19;101618.13;;;6.41;67.32
76653;BME280;65563;45.970;12.680;2023-03-19T01:17:20;101614.63;;;6.31;67.65
76653;BME280;65563;45.970;12.680;2023-03-19T01:18:20;101611.19;;;6.31;67.81
76653;BME280;65563;45.970;12.680;2023-03-19T01:19:20;101615.88;;;6.17;68.41
76653;BME280;65563;45.970;12.680;2023-03-19T01:20:20;101615.22;;;6.25;68.07
76653;BME280;65563;45.970;12.680;2023-03-19T01:21:20;101604.25;;;6.39;67.95
76653;BME280;65563;45.970;12.680;2023-03-19T01:22:20;101605.34;;;6.37;67.83
76653;BME280;65563;45.970;12.680;2023-03-19T01:23:21;101604.78;;;6.43;67.64
76653;BME280;65563;45.970;12.680;2023-03-19T01:24:21;101611.56;;;6.45;67.63
76653;BME280;65563;45.970;12.680;2023-03-19T01:25:21;101608.94;;;6.45;67.64
76653;BME280;65563;45.970;12.680;2023-03-19T01:26:22;101608.66;;;6.49;67.67
76653;BME280;65563;45.970;12.680;2023-03-19T01:27:22;101609.78;;;6.46;67.49
76653;BME280;65563;45.970;12.680;2023-03-19T01:28:22;101611.31;;;6.49;67.49
76653;BME280;65563;45.970;12.680;2023-03-19T01:29:23;101605.75;;;6.52;67.43
76653;BME280;65563;45.970;12.680;2023-03-19T01:30:23;101605.75;;;6.52;67.52
76653;BME280;65563;45.970;12.680;2023-03-19T01:31:23;101601.03;;;6.45;67.82
76653;BME280;65563;45.970;12.680;2023-03-19T01:32:23;101599.09;;;6.48;67.49
76653;BME280;65563;45.970;12.680;2023-03-19T01:33:23;101603.25;;;6.40;67.73
76653;BME280;65563;45.970;12.680;2023-03-19T01:34:23;101600.22;;;6.35;68.00
76653;BME280;65563;45.970;12.680;2023-03-19T01:35:24;101593.53;;;6.31;67.99
76653;BME280;65563;45.970;12.680;2023-03-19T01:36:24;101595.34;;;6.31;67.35
76653;BME280;65563;45.970;12.680;2023-03-19T01:37:24;101597.19;;;6.11;68.29
76653;BME280;65563;45.970;12.680;2023-03-19T01:38:24;101596.34;;;6.01;68.29
76653;BME280;65563;45.970;12.680;2023-03-19T01:39:24;101602.81;;;5.96;68.91
76653;BME280;65563;45.970;12.680;2023-03-19T01:40:24;101595.16;;;5.84;69.09
76653;BME280;65563;45.970;12.680;2023-03-19T01:41:25;101598.78;;;5.83;69.40
76653;BME280;65563;45.970;12.680;2023-03-19T01:42:25;101600.16;;;5.87;69.04
76653;BME280;65563;45.970;12.680;2023-03-19T01:43:26;101604.19;;;5.81;69.54
76653;BME280;65563;45.970;12.680;2023-03-19T01:44:28;101605.41;;;5.77;70.23
76653;BME280;65563;45.970;12.680;2023-03-19T01:45:29;101601.13;;;5.86;69.81
76653;BME280;65563;45.970;12.680;2023-03-19T01:46:33;101598.38;;;5.87;69.52
76653;BME280;65563;45.970;12.680;2023-03-19T01:47:36;101609.34;;;5.92;69.53
76653;BME280;65563;45.970;12.680;2023-03-19T01:48:42;101601.47;;;6.02;69.37
76653;BME280;65563;45.970;12.680;2023-03-19T01:49:51;101606.03;;;6.10;68.72
76653;BME280;65563;45.970;12.680;2023-03-19T01:50:52;101603.41;;;6.10;68.61
76653;BME280;65563;45.970;12.680;2023-03-19T01:51:52;101597.31;;;6.19;68.29
76653;BME280;65563;45.970;12.680;2023-03-19T01:52:54;101591.88;;;6.20;68.24
76653;BME280;65563;45.970;12.680;2023-03-19T01:53:56;101598.69;;;6.13;68.50
76653;BME280;65563;45.970;12.680;2023-03-19T01:54:58;101594.66;;;6.19;68.08
76653;BME280;65563;45.970;12.680;2023-03-19T01:56:03;101597.59;;;6.16;68.23
76653;BME280;65563;45.970;12.680;2023-03-19T01:57:07;101593.84;;;6.09;68.61
76653;BME280;65563;45.970;12.680;2023-03-19T01:58:08;101597.28;;;6.09;68.73
76653;BME280;65563;45.970;12.680;2023-03-19T01:59:14;101596.19;;;6.12;68.64
76653;BME280;65563;45.970;12.680;2023-03-19T02:00:15;101597.03;;;6.12;68.72
76653;BME280;65563;45.970;12.680;2023-03-19T02:01:15;101593.25;;;5.95;68.81
76653;BME280;65563;45.970;12.680;2023-03-19T02:03:28;101595.47;;;5.90;68.69
76653;BME280;65563;45.970;12.680;2023-03-19T02:04:28;101581.56;;;5.79;69.06
76653;BME280;65563;45.970;12.680;2023-03-19T02:05:30;101581.00;;;5.75;69.75
76653;BME280;65563;45.970;12.680;2023-03-19T02:06:30;101587.31;;;5.93;69.16
76653;BME280;65563;45.970;12.680;2023-03-19T02:07:31;101584.38;;;5.96;68.95
76653;BME280;65563;45.970;12.680;2023-03-19T02:08:33;101587.72;;;5.98;68.81
76653;BME280;65563;45.970;12.680;2023-03-19T02:09:34;101581.84;;;5.85;68.64
76653;BME280;65563;45.970;12.680;2023-03-19T02:10:35;101584.06;;;5.80;69.07
76653;BME280;65563;45.970;12.680;2023-03-19T02:11:36;101586.25;;;5.75;69.63
76653;BME280;65563;45.970;12.680;2023-03-19T02:12:36;101586.00;;;5.78;68.91
76653;BME280;65563;45.970;12.680;2023-03-19T02:13:36;101580.03;;;5.86;68.55
76653;BME280;65563;45.970;12.680;2023-03-19T02:14:37;101582.16;;;6.02;68.03
76653;BME280;65563;45.970;12.680;2023-03-19T02:15:37;101586.19;;;6.06;67.97
76653;BME280;65563;45.970;12.680;2023-03-19T02:16:37;101581.34;;;6.01;67.97
76653;BME280;65563;45.970;12.680;2023-03-19T02:17:38;101582.16;;;6.02;67.86
76653;BME280;65563;45.970;12.680;2023-03-19T02:18:39;101585.34;;;5.95;67.89
76653;BME280;65563;45.970;12.680;2023-03-19T02:19:45;101590.56;;;5.86;68.24
76653;BME280;65563;45.970;12.680;2023-03-19T02:20:57;101582.94;;;5.73;68.91
76653;BME280;65563;45.970;12.680;2023-03-19T02:22:02;101587.09;;;5.75;68.70
76653;BME280;65563;45.970;12.680;2023-03-19T02:23:06;101581.81;;;5.66;69.03
76653;BME280;65563;45.970;12.680;2023-03-19T02:24:12;101581.56;;;5.69;69.11
76653;BME280;65563;45.970;12.680;2023-03-19T02:25:15;101580.44;;;5.71;69.22
76653;BME280;65563;45.970;12.680;2023-03-19T02:26:18;101584.75;;;5.72;69.40
76653;BME280;65563;45.970;12.680;2023-03-19T02:27:20;101589.59;;;5.67;69.02
76653;BME280;65563;45.970;12.680;2023-03-19T02:28:20;101588.78;;;5.77;68.85
76653;BME280;65563;45.970;12.680;2023-03-19T02:29:21;101582.38;;;5.69;68.56
76653;BME280;65563;45.970;12.680;2023-03-19T02:30:29;101584.88;;;5.71;68.57
76653;BME280;65563;45.970;12.680;2023-03-19T02:31:30;101580.25;;;5.54;69.25
76653;BME280;65563;45.970;12.680;2023-03-19T02:32:30;101578.34;;;5.56;69.17
76653;BME280;65563;45.970;12.680;2023-03-19T02:33:30;101581.66;;;5.48;69.38
76653;BME280;65563;45.970;12.680;2023-03-19T02:34:40;101578.47;;;5.54;69.15
76653;BME280;65563;45.970;12.680;2023-03-19T02:35:40;101588.59;;;5.49;69.45
76653;BME280;65563;45.970;12.680;2023-03-19T02:36:42;101593.69;;;5.50;69.20
76653;BME280;65563;45.970;12.680;2023-03-19T02:37:43;101594.94;;;5.46;69.66
76653;BME280;65563;45.970;12.680;2023-03-19T02:38:43;101589.69;;;5.46;69.55
76653;BME280;65563;45.970;12.680;2023-03-19T02:39:56;101593.28;;;5.45;69.52
76653;BME280;65563;45.970;12.680;2023-03-19T02:40:59;101592.97;;;5.39;69.46
76653;BME280;65563;45.970;12.680;2023-03-19T02:42:00;101592.56;;;5.43;69.54
76653;BME280;65563;45.970;12.680;2023-03-19T02:43:01;101593.16;;;5.57;69.19
76653;BME280;65563;45.970;12.680;2023-03-19T02:44:01;101588.75;;;5.67;68.67
76653;BME280;65563;45.970;12.680;2023-03-19T02:45:02;101587.25;;;5.74;68.13
76653;BME280;65563;45.970;12.680;2023-03-19T02:46:03;101585.31;;;5.76;68.23
76653;BME280;65563;45.970;12.680;2023-03-19T02:47:04;101586.25;;;5.75;68.24
76653;BME280;65563;45.970;12.680;2023-03-19T02:48:04;101589.59;;;5.77;68.06
76653;BME280;65563;45.970;12.680;2023-03-19T02:49:05;101590.41;;;5.68;68.08
76653;BME280;65563;45.970;12.680;2023-03-19T02:50:05;101587.94;;;5.76;67.96
76653;BME280;65563;45.970;12.680;2023-03-19T02:51:05;101586.44;;;5.83;67.46
76653;BME280;65563;45.970;12.680;2023-03-19T02:52:05;101586.69;;;5.80;67.52
76653;BME280;65563;45.970;12.680;2023-03-19T02:53:06;101586.16;;;5.86;67.29
76653;BME280;65563;45.970;12.680;2023-03-19T02:54:06;101573.53;;;5.80;67.24
76653;BME280;65563;45.970;12.680;2023-03-19T02:55:07;101581.84;;;5.85;67.37
76653;BME280;65563;45.970;12.680;2023-03-19T02:56:07;101576.28;;;5.88;67.03
76653;BME280;65563;45.970;12.680;2023-03-19T02:57:07;101579.91;;;5.78;67.46
76653;BME280;65563;45.970;12.680;2023-03-19T02:58:07;101577.91;;;5.60;67.89
76653;BME280;65563;45.970;12.680;2023-03-19T02:59:08;101582.09;;;5.63;67.93
76653;BME280;65563;45.970;12.680;2023-03-19T03:00:08;101578.06;;;5.68;68.02
76653;BME280;65563;45.970;12.680;2023-03-19T03:01:08;101577.66;;;5.63;67.95
76653;BME280;65563;45.970;12.680;2023-03-19T03:02:08;101573.66;;;5.69;67.72
76653;BME280;65563;45.970;12.680;2023-03-19T03:03:09;101573.50;;;5.70;67.88
76653;BME280;65563;45.970;12.680;2023-03-19T03:04:09;101569.59;;;5.65;68.31
76653;BME280;65563;45.970;12.680;2023-03-19T03:05:09;101567.94;;;5.64;68.08
76653;BME280;65563;45.970;12.680;2023-03-19T03:06:09;101572.94;;;5.67;68.12
76653;BME280;65563;45.970;12.680;2023-03-19T03:07:10;101577.25;;;5.58;68.48
76653;BME280;65563;45.970;12.680;2023-03-19T03:08:10;101576.81;;;5.63;68.05
76653;BME280;65563;45.970;12.680;2023-03-19T03:09:11;101576.56;;;5.66;67.79
76653;BME280;65563;45.970;12.680;2023-03-19T03:10:11;101575.59;;;5.67;67.68
76653;BME280;65563;45.970;12.680;2023-03-19T03:11:11;101572.97;;;5.77;67.44
76653;BME280;65563;45.970;12.680;2023-03-19T03:12:11;101576.44;;;5.87;66.96
76653;BME280;65563;45.970;12.680;2023-03-19T03:13:12;101587.56;;;5.90;66.90
76653;BME280;65563;45.970;12.680;2023-03-19T03:14:12;101581.56;;;5.88;66.79
76653;BME280;65563;45.970;12.680;2023-03-19T03:15:12;101590.72;;;5.74;67.23
76653;BME280;65563;45.970;12.680;2023-03-19T03:16:12;101589.56;;;5.58;67.87
76653;BME280;65563;45.970;12.680;2023-03-19T03:17:13;101592.56;;;5.43;68.74
76653;BME280;65563;45.970;12.680;2023-03-19T03:18:13;101598.09;;;5.31;69.27
76653;BME280;65563;45.970;12.680;2023-03-19T03:19:13;101594.06;;;5.36;68.97
76653;BME280;65563;45.970;12.680;2023-03-19T03:20:14;101595.31;;;5.32;69.19
76653;BME280;65563;45.970;12.680;2023-03-19T03:21:14;101593.34;;;5.24;69.31
76653;BME280;65563;45.970;12.680;2023-03-19T03:22:14;101591.03;;;5.31;69.20
76653;BME280;65563;45.970;12.680;2023-03-19T03:23:15;101591.59;;;5.35;68.97
76653;BME280;65563;45.970;12.680;2023-03-19T03:24:15;101587.16;;;5.35;69.10
76653;BME280;65563;45.970;12.680;2023-03-19T03:25:15;101585.63;;;5.33;69.14
76653;BME280;65563;45.970;12.680;2023-03-19T03:26:15;101592.00;;;5.40;69.44
76653;BME280;65563;45.970;12.680;2023-03-19T03:27:15;101597.16;;;5.41;69.40
76653;BME280;65563;45.970;12.680;2023-03-19T03:28:15;101587.88;;;5.37;69.44
76653;BME280;65563;45.970;12.680;2023-03-19T03:29:16;101590.13;;;5.52;68.78
76653;BME280;65563;45.970;12.680;2023-03-19T03:30:16;101587.94;;;5.66;68.37
76653;BME280;65563;45.970;12.680;2023-03-19T03:31:16;101588.34;;;5.62;68.01
76653;BME280;65563;45.970;12.680;2023-03-19T03:32:16;101586.91;;;5.58;67.96
76653;BME280;65563;45.970;12.680;2023-03-19T03:33:16;101587.38;;;5.63;68.29
76653;BME280;65563;45.970;12.680;2023-03-19T03:34:16;101588.16;;;5.54;68.41
76653;BME280;65563;45.970;12.680;2023-03-19T03:35:17;101601.78;;;5.59;68.16
76653;BME280;65563;45.970;12.680;2023-03-19T03:36:17;101595.38;;;5.52;68.02
76653;BME280;65563;45.970;12.680;2023-03-19T03:37:17;101600.47;;;5.43;67.94
76653;BME280;65563;45.970;12.680;2023-03-19T03:38:17;101602.00;;;5.46;68.29
76653;BME280;65563;45.970;12.680;2023-03-19T03:39:17;101594.63;;;5.40;68.42
76653;BME280;65563;45.970;12.680;2023-03-19T03:40:18;101599.22;;;5.38;68.53
76653;BME280;65563;45.970;12.680;2023-03-19T03:41:18;101604.19;;;5.31;69.03
76653;BME280;65563;45.970;12.680;2023-03-19T03:42:18;101607.28;;;5.46;68.78
76653;BME280;65563;45.970;12.680;2023-03-19T03:43:19;101598.56;;;5.45;68.32
76653;BME280;65563;45.970;12.680;2023-03-19T03:44:19;101590.41;;;5.58;68.20
76653;BME280;65563;45.970;12.680;2023-03-19T03:45:19;101591.25;;;5.59;67.91
76653;BME280;65563;45.970;12.680;2023-03-19T03:46:20;101596.50;;;5.68;67.82
76653;BME280;65563;45.970;12.680;2023-03-19T03:47:20;101594.28;;;5.64;68.02
76653;BME280;65563;45.970;12.680;2023-03-19T03:48:20;101589.84;;;5.64;68.18
76653;BME280;65563;45.970;12.680;2023-03-19T03:49:21;101586.84;;;5.69;67.92
76653;BME280;65563;45.970;12.680;2023-03-19T03:50:21;101592.78;;;5.71;67.51
76653;BME280;65563;45.970;12.680;2023-03-19T03:51:21;101591.13;;;5.70;67.48
76653;BME280;65563;45.970;12.680;2023-03-19T03:52:21;101591.28;;;5.78;67.53
76653;BME280;65563;45.970;12.680;2023-03-19T03:53:21;101596.94;;;5.64;67.69
76653;BME280;65563;45.970;12.680;2023-03-19T03:54:21;101592.50;;;5.55;68.07
76653;BME280;65563;45.970;12.680;2023-03-19T03:55:22;101607.13;;;5.47;68.56
76653;BME280;65563;45.970;12.680;2023-03-19T03:56:22;101601.59;;;5.50;68.66
76653;BME280;65563;45.970;12.680;2023-03-19T03:57:22;101606.97;;;5.39;68.65
76653;BME280;65563;45.970;12.680;2023-03-19T03:58:23;101613.09;;;5.40;68.93
76653;BME280;65563;45.970;12.680;2023-03-19T03:59:23;101616.53;;;5.40;69.28
76653;BME280;65563;45.970;12.680;2023-03-19T04:00:23;101608.53;;;5.42;68.83
76653;BME280;65563;45.970;12.680;2023-03-19T04:01:23;101620.34;;;5.57;68.58
76653;BME280;65563;45.970;12.680;2023-03-19T04:02:23;101618.38;;;5.49;68.49
76653;BME280;65563;45.970;12.680;2023-03-19T04:03:24;101615.91;;;5.48;68.60
76653;BME280;65563;45.970;12.680;2023-03-19T04:04:24;101623.09;;;5.46;68.99
76653;BME280;65563;45.970;12.680;2023-03-19T04:05:24;101623.41;;;5.53;68.79
76653;BME280;65563;45.970;12.680;2023-03-19T04:06:25;101619.47;;;5.47;69.31
76653;BME280;65563;45.970;12.680;2023-03-19T04:07:26;101623.34;;;5.43;69.25
76653;BME280;65563;45.970;12.680;2023-03-19T04:08:26;101623.25;;;5.54;68.68
76653;BME280;65563;45.970;12.680;2023-03-19T04:09:26;101615.81;;;5.69;68.17
76653;BME280;65563;45.970;12.680;2023-03-19T04:10:26;101614.84;;;5.70;68.07
76653;BME280;65563;45.970;12.680;2023-03-19T04:11:26;101618.56;;;5.67;67.96
76653;BME280;65563;45.970;12.680;2023-03-19T04:12:27;101626.06;;;5.72;67.76
76653;BME280;65563;45.970;12.680;2023-03-19T04:13:27;101623.72;;;5.69;68.01
76653;BME280;65563;45.970;12.680;2023-03-19T04:14:27;101628.84;;;5.70;67.98
76653;BME280;65563;45.970;12.680;2023-03-19T04:15:27;101633.97;;;5.62;68.12
76653;BME280;65563;45.970;12.680;2023-03-19T04:16:27;101630.91;;;5.67;68.17
76653;BME280;65563;45.970;12.680;2023-03-19T04:17:27;101636.13;;;5.47;68.26
76653;BME280;65563;45.970;12.680;2023-03-19T04:18:28;101632.34;;;5.40;68.69
76653;BME280;65563;45.970;12.680;2023-03-19T04:19:28;101631.78;;;5.37;68.94
76653;BME280;65563;45.970;12.680;2023-03-19T04:20:28;101635.53;;;5.34;69.14
76653;BME280;65563;45.970;12.680;2023-03-19T04:21:28;101634.72;;;5.43;68.84
76653;BME280;65563;45.970;12.680;2023-03-19T04:22:28;101631.41;;;5.41;68.65
76653;BME280;65563;45.970;12.680;2023-03-19T04:23:29;101627.88;;;5.62;68.17
76653;BME280;65563;45.970;12.680;2023-03-19T04:24:29;101625.75;;;5.56;67.90
76653;BME280;65563;45.970;12.680;2023-03-19T04:25:29;101630.28;;;5.44;68.34
76653;BME280;65563;45.970;12.680;2023-03-19T04:26:29;101634.59;;;5.45;68.42
76653;BME280;65563;45.970;12.680;2023-03-19T04:27:29;101641.13;;;5.50;68.85
76653;BME280;65563;45.970;12.680;2023-03-19T04:28:30;101630.88;;;5.57;68.11
76653;BME280;65563;45.970;12.680;2023-03-19T04:29:30;101631.63;;;5.69;67.67
76653;BME280;65563;45.970;12.680;2023-03-19T04:30:30;101623.03;;;5.77;67.96
76653;BME280;65563;45.970;12.680;2023-03-19T04:31:30;101629.13;;;5.67;68.03
76653;BME280;65563;45.970;12.680;2023-03-19T04:32:30;101630.66;;;5.70;67.89
76653;BME280;65563;45.970;12.680;2023-03-19T04:33:31;101631.19;;;5.64;68.33
76653;BME280;65563;45.970;12.680;2023-03-19T04:34:31;101636.31;;;5.56;68.59
76653;BME280;65563;45.970;12.680;2023-03-19T04:35:31;101627.84;;;5.52;68.75
76653;BME280;65563;45.970;12.680;2023-03-19T04:36:31;101639.75;;;5.56;68.76
76653;BME280;65563;45.970;12.680;2023-03-19T04:37:31;101638.81;;;5.67;68.65
76653;BME280;65563;45.970;12.680;2023-03-19T04:38:32;101631.28;;;5.53;68.54
76653;BME280;65563;45.970;12.680;2023-03-19T04:39:32;101629.78;;;5.60;68.59
76653;BME280;65563;45.970;12.680;2023-03-19T04:40:32;101625.31;;;5.50;69.08
76653;BME280;65563;45.970;12.680;2023-03-19T04:41:32;101622.59;;;5.62;68.48
76653;BME280;65563;45.970;12.680;2023-03-19T04:42:32;101624.00;;;5.66;68.54
76653;BME280;65563;45.970;12.680;2023-03-19T04:43:32;101620.97;;;5.80;67.97
76653;BME280;65563;45.970;12.680;2023-03-19T04:44:32;101615.16;;;5.86;67.66
76653;BME280;65563;45.970;12.680;2023-03-19T04:45:33;101617.81;;;5.86;67.49
76653;BME280;65563;45.970;12.680;2023-03-19T04:46:33;101621.13;;;5.88;67.26
76653;BME280;65563;45.970;12.680;2023-03-19T04:47:33;101619.56;;;5.86;67.47
76653;BME280;65563;45.970;12.680;2023-03-19T04:48:33;101616.94;;;5.86;67.36
76653;BME280;65563;45.970;12.680;2023-03-19T04:49:34;101620.41;;;5.77;67.74
76653;BME280;65563;45.970;12.680;2023-03-19T04:50:34;101625.78;;;5.65;67.90
76653;BME280;65563;45.970;12.680;2023-03-19T04:51:34;101622.59;;;5.62;68.41
76653;BME280;65563;45.970;12.680;2023-03-19T04:52:35;101623.69;;;5.59;68.35
76653;BME280;65563;45.970;12.680;2023-03-19T04:53:35;101624.50;;;5.50;68.95
76653;BME280;65563;45.970;12.680;2023-03-19T04:54:35;101627.78;;;5.42;69.00
76653;BME280;65563;45.970;12.680;2023-03-19T04:55:36;101628.31;;;5.36;69.26
76653;BME280;65563;45.970;12.680;2023-03-19T04:56:36;101628.22;;;5.47;69.16
76653;BME280;65563;45.970;12.680;2023-03-19T04:57:36;101630.59;;;5.50;69.00
76653;BME280;65563;45.970;12.680;2023-03-19T04:58:36;101628.38;;;5.46;68.93
76653;BME280;65563;45.970;12.680;2023-03-19T04:59:36;101628.41;;;5.56;68.54
76653;BME280;65563;45.970;12.680;2023-03-19T05:00:36;101624.63;;;5.48;68.56
76653;BME280;65563;45.970;12.680;2023-03-19T05:01:37;101637.25;;;5.45;69.05
76653;BME280;65563;45.970;12.680;2023-03-19T05:02:37;101638.75;;;5.47;68.71
76653;BME280;65563;45.970;12.680;2023-03-19T05:03:37;101639.72;;;5.46;69.02
76653;BME280;65563;45.970;12.680;2023-03-19T05:04:37;101641.38;;;5.47;68.95
76653;BME280;65563;45.970;12.680;2023-03-19T05:05:37;101640.84;;;5.54;68.75
76653;BME280;65563;45.970;12.680;2023-03-19T05:06:37;101641.69;;;5.54;68.79
76653;BME280;65563;45.970;12.680;2023-03-19T05:07:38;101639.19;;;5.53;69.12
76653;BME280;65563;45.970;12.680;2023-03-19T05:08:38;101647.09;;;5.53;68.81
76653;BME280;65563;45.970;12.680;2023-03-19T05:09:38;101640.84;;;5.54;68.90
76653;BME280;65563;45.970;12.680;2023-03-19T05:10:39;101642.97;;;5.60;68.87
76653;BME280;65563;45.970;12.680;2023-03-19T05:11:39;101642.81;;;5.61;68.65
76653;BME280;65563;45.970;12.680;2023-03-19T05:12:39;101642.44;;;5.66;68.93
76653;BME280;65563;45.970;12.680;2023-03-19T05:13:39;101641.72;;;5.64;68.52
76653;BME280;65563;45.970;12.680;2023-03-19T05:14:39;101646.19;;;5.73;68.28
76653;BME280;65563;45.970;12.680;2023-03-19T05:15:43;101644.25;;;5.75;68.22
76653;BME280;65563;45.970;12.680;2023-03-19T05:16:43;101647.03;;;5.73;68.01
76653;BME280;65563;45.970;12.680;2023-03-19T05:17:44;101653.13;;;5.74;68.15
76653;BME280;65563;45.970;12.680;2023-03-19T05:18:44;101647.31;;;5.80;68.22